Galdar, Spain
Current Conditions -  °F | °C
As of 5:00 PM on Friday 28 Nov 2014 (Local Time) from GCLP Reporting Station
Broken Clouds Broken Clouds  
Wind Chill: 73°   Ceiling: 4500
Heat Index: 73°   Visibility: 6mi
Dew Point: 63°   Wind: 10mph
Humidity: 69%   Direction: 330°NNW
Pressure: 29.47"   Gusts: NA
Location:  28.14°N, 15.65°W
Report Text: GCLP 281600Z 33009KT 300V020 9999 SCT020 BKN045 23/17 Q0998 NOSIG
Loading
Personal Weather Stations






























Interactive Weather Map New forecast layout! Learn more

10-Day Weather Forecast

Advertisements
Track Severe Weather on mobile